YO8SKY Weather Reports


Display with metric or nautical units.
time (UTC)temp
F
wind
direction
speed
MPH
gust
MPH
rain 1hr
in
rain 24hr
in
rain mn
in
humidity
%
barometer
mb
20191207203926 39 360 1.0 4.0 0.00 0.00 0.00 72 1009.2
20191207203027 39 360 2.0 5.0 0.00 0.00 0.00 71 1009.1
20191207202125 39 45 2.0 5.0 0.00 0.00 0.00 70 1008.9
20191207201224 40 45 4.0 5.0 0.00 0.00 0.00 69 1008.8
20191207200325 40 180 0.0 4.0 0.00 0.00 0.00 66 1008.6
20191207195425 40 360 2.0 4.0 0.00 0.00 0.00 66 1008.4
20191207193623 41 360 2.0 5.0 0.00 0.00 0.00 65 1008.1
20191207192721 41 360 3.0 4.0 0.00 0.00 0.00 65 1008.3
20191207191822 41 315 2.0 4.0 0.00 0.00 0.00 65 1008.2
20191207190923 41 315 2.0 4.0 0.00 0.00 0.00 65 1008.1
20191207172128 42 45 2.0 4.0 0.00 0.00 0.00 57 1006.4
20191207170327 42 360 3.0 5.0 0.00 0.00 0.00 56 1006.3
20191207165427 42 315 2.0 6.0 0.00 0.00 0.00 57 1006.0
20191207163628 42 315 2.0 4.0 0.00 0.00 0.00 56 1006.0
20191207161829 42 360 4.0 8.0 0.00 0.00 0.00 55 1005.9
20191207160928 43 360 5.0 7.0 0.00 0.00 0.00 53 1005.9
20191207153331 43 360 4.0 8.0 0.00 0.00 0.00 52 1005.8
20191207151530 44 315 3.0 7.0 0.00 0.00 0.00 50 1005.4
20191207150630 44 315 4.0 7.0 0.00 0.00 0.00 49 1005.0
20191207145730 44 315 3.0 5.0 0.00 0.00 0.00 48 1004.9
20191207144830 45 180 1.0 4.0 0.00 0.00 0.00 47 1004.9
20191207143929 45 270 2.0 5.0 0.00 0.00 0.00 46 1004.7
20191207142129 46 360 2.0 6.0 0.00 0.00 0.00 45 1004.4
20191207141228 47 90 2.0 7.0 0.00 0.00 0.00 43 1003.9
20191207135426 49 315 4.0 8.0 0.00 0.00 0.00 40 1003.6
20191207133626 51 315 4.0 11.0 0.00 0.00 0.00 37 1003.2
20191207132726 51 45 4.0 11.0 0.00 0.00 0.00 36 1003.2
20191207110513 58 315 2.0 8.0 0.00 0.00 0.00 24 1004.5
20191207104717 58 360 4.0 8.0 0.00 0.00 0.00 24 1004.4
20191207103819 58 315 2.0 8.0 0.00 0.00 0.00 23 1004.2
20191207102021 56 360 4.0 8.0 0.00 0.00 0.00 25 1003.7
20191207101123 56 360 5.0 9.0 0.00 0.00 0.00 25 1003.6
20191207100225 55 315 5.0 9.0 0.00 0.00 0.00 27 1003.3
20191207094424 55 315 3.0 8.0 0.00 0.00 0.00 26 1003.2
20191207093524 55 315 3.0 6.0 0.00 0.00 0.00 28 1002.8
20191207092623 54 360 2.0 5.0 0.00 0.00 0.00 31 1002.7